Terminal Aerodrome Forecast
Issued by NWS

Home | Current Version | Previous Version | Text Only | Print | Product List | Glossary On
Versions: 1 2 3 4 5 6 7 8 9 10 11 12 13 14
000
FTUS43 KICT 121322 AAA
TAFSLN
TAF AMD
KSLN 121322Z 1213/1312 29007KT P6SM FEW035
      TEMPO 1213/1215 BKN030
     FM121700 25009KT P6SM SKC
     FM122100 22008KT P6SM SKC=

USA.gov is the U.S. government's official web portal to all federal, state and local government web resources and services.